sensor_id;sensor_type;location;lat;lon;timestamp;temperature;humidity
76785;SHT30;66893;44.316;0.092;2023-10-09T00:00:33;23.57;45.62
76785;SHT30;66893;44.316;0.092;2023-10-09T00:03:19;23.52;45.58
76785;SHT30;66893;44.316;0.092;2023-10-09T00:05:48;23.47;45.60
76785;SHT30;66893;44.316;0.092;2023-10-09T00:08:18;23.47;45.61
76785;SHT30;66893;44.316;0.092;2023-10-09T00:10:57;23.46;45.59
76785;SHT30;66893;44.316;0.092;2023-10-09T00:13:26;23.43;45.61
76785;SHT30;66893;44.316;0.092;2023-10-09T00:16:04;23.41;45.62
76785;SHT30;66893;44.316;0.092;2023-10-09T00:18:39;23.39;45.61
76785;SHT30;66893;44.316;0.092;2023-10-09T00:21:04;23.36;45.64
76785;SHT30;66893;44.316;0.092;2023-10-09T00:23:40;23.33;45.63
76785;SHT30;66893;44.316;0.092;2023-10-09T00:26:09;23.30;45.67
76785;SHT30;66893;44.316;0.092;2023-10-09T00:28:40;23.30;45.65
76785;SHT30;66893;44.316;0.092;2023-10-09T00:31:09;23.26;45.69
76785;SHT30;66893;44.316;0.092;2023-10-09T00:33:40;23.25;45.66
76785;SHT30;66893;44.316;0.092;2023-10-09T00:36:07;23.22;45.68
76785;SHT30;66893;44.316;0.092;2023-10-09T00:38:38;23.20;45.66
76785;SHT30;66893;44.316;0.092;2023-10-09T00:41:17;23.18;45.65
76785;SHT30;66893;44.316;0.092;2023-10-09T00:43:47;23.18;45.67
76785;SHT30;66893;44.316;0.092;2023-10-09T00:46:16;23.12;45.66
76785;SHT30;66893;44.316;0.092;2023-10-09T00:48:49;23.12;45.71
76785;SHT30;66893;44.316;0.092;2023-10-09T00:51:18;23.09;45.68
76785;SHT30;66893;44.316;0.092;2023-10-09T00:53:51;23.08;45.75
76785;SHT30;66893;44.316;0.092;2023-10-09T00:56:22;23.07;45.70
76785;SHT30;66893;44.316;0.092;2023-10-09T00:58:52;23.04;45.71
76785;SHT30;66893;44.316;0.092;2023-10-09T01:01:24;23.02;45.69
76785;SHT30;66893;44.316;0.092;2023-10-09T01:04:10;23.01;45.69
76785;SHT30;66893;44.316;0.092;2023-10-09T01:06:41;22.98;45.70
76785;SHT30;66893;44.316;0.092;2023-10-09T01:09:14;22.97;45.75
76785;SHT30;66893;44.316;0.092;2023-10-09T01:11:41;22.95;45.79
76785;SHT30;66893;44.316;0.092;2023-10-09T01:14:24;22.92;45.74
76785;SHT30;66893;44.316;0.092;2023-10-09T01:16:50;22.91;45.75
76785;SHT30;66893;44.316;0.092;2023-10-09T01:19:19;22.88;45.75
76785;SHT30;66893;44.316;0.092;2023-10-09T01:21:52;22.87;45.73
76785;SHT30;66893;44.316;0.092;2023-10-09T01:24:18;22.84;45.75
76785;SHT30;66893;44.316;0.092;2023-10-09T01:26:45;22.84;45.75
76785;SHT30;66893;44.316;0.092;2023-10-09T01:29:21;22.81;45.80
76785;SHT30;66893;44.316;0.092;2023-10-09T01:31:51;22.77;45.77
76785;SHT30;66893;44.316;0.092;2023-10-09T01:34:33;22.77;45.79
76785;SHT30;66893;44.316;0.092;2023-10-09T01:37:09;22.74;45.76
76785;SHT30;66893;44.316;0.092;2023-10-09T01:39:45;22.70;45.76
76785;SHT30;66893;44.316;0.092;2023-10-09T01:42:13;22.68;45.77
76785;SHT30;66893;44.316;0.092;2023-10-09T01:44:48;22.67;45.79
76785;SHT30;66893;44.316;0.092;2023-10-09T01:47:14;22.64;45.80
76785;SHT30;66893;44.316;0.092;2023-10-09T01:49:43;22.63;45.83
76785;SHT30;66893;44.316;0.092;2023-10-09T01:52:12;22.59;45.82
76785;SHT30;66893;44.316;0.092;2023-10-09T01:54:43;22.57;45.85
76785;SHT30;66893;44.316;0.092;2023-10-09T01:57:12;22.57;45.79
76785;SHT30;66893;44.316;0.092;2023-10-09T01:59:39;22.56;45.79
76785;SHT30;66893;44.316;0.092;2023-10-09T02:02:09;22.54;45.82
76785;SHT30;66893;44.316;0.092;2023-10-09T02:05:01;22.54;45.77
76785;SHT30;66893;44.316;0.092;2023-10-09T02:07:51;22.49;45.82
76785;SHT30;66893;44.316;0.092;2023-10-09T02:10:21;22.47;45.80
76785;SHT30;66893;44.316;0.092;2023-10-09T02:12:53;22.46;45.81
76785;SHT30;66893;44.316;0.092;2023-10-09T02:15:24;22.43;45.78
76785;SHT30;66893;44.316;0.092;2023-10-09T02:18:06;22.44;45.78
76785;SHT30;66893;44.316;0.092;2023-10-09T02:21:06;22.43;45.76
76785;SHT30;66893;44.316;0.092;2023-10-09T02:23:33;22.40;45.75
76785;SHT30;66893;44.316;0.092;2023-10-09T02:26:15;22.42;45.79
76785;SHT30;66893;44.316;0.092;2023-10-09T02:29:19;22.40;45.77
76785;SHT30;66893;44.316;0.092;2023-10-09T02:31:49;22.36;45.78
76785;SHT30;66893;44.316;0.092;2023-10-09T02:34:19;22.35;45.81
76785;SHT30;66893;44.316;0.092;2023-10-09T02:36:47;22.33;45.78
76785;SHT30;66893;44.316;0.092;2023-10-09T02:39:23;22.35;45.76
76785;SHT30;66893;44.316;0.092;2023-10-09T02:41:53;22.33;45.75
76785;SHT30;66893;44.316;0.092;2023-10-09T02:44:23;22.32;45.78
76785;SHT30;66893;44.316;0.092;2023-10-09T02:46:52;22.28;45.72
76785;SHT30;66893;44.316;0.092;2023-10-09T02:49:23;22.28;45.74
76785;SHT30;66893;44.316;0.092;2023-10-09T02:51:48;22.28;45.77
76785;SHT30;66893;44.316;0.092;2023-10-09T02:54:18;22.25;45.73
76785;SHT30;66893;44.316;0.092;2023-10-09T02:56:48;22.23;45.71
76785;SHT30;66893;44.316;0.092;2023-10-09T02:59:35;22.22;45.71
76785;SHT30;66893;44.316;0.092;2023-10-09T03:02:04;22.19;45.75
76785;SHT30;66893;44.316;0.092;2023-10-09T03:04:29;22.17;45.75
76785;SHT30;66893;44.316;0.092;2023-10-09T03:06:55;22.16;45.71
76785;SHT30;66893;44.316;0.092;2023-10-09T03:09:22;22.16;45.70
76785;SHT30;66893;44.316;0.092;2023-10-09T03:12:00;22.15;45.70
76785;SHT30;66893;44.316;0.092;2023-10-09T03:14:34;22.12;45.74
76785;SHT30;66893;44.316;0.092;2023-10-09T03:17:04;22.12;45.70
76785;SHT30;66893;44.316;0.092;2023-10-09T03:19:30;22.10;45.71
76785;SHT30;66893;44.316;0.092;2023-10-09T03:21:56;22.09;45.72
76785;SHT30;66893;44.316;0.092;2023-10-09T03:24:25;22.06;45.68
76785;SHT30;66893;44.316;0.092;2023-10-09T03:26:52;22.05;45.68
76785;SHT30;66893;44.316;0.092;2023-10-09T03:29:21;22.04;45.65
76785;SHT30;66893;44.316;0.092;2023-10-09T03:31:47;22.01;45.66
76785;SHT30;66893;44.316;0.092;2023-10-09T03:34:15;21.99;45.67
76785;SHT30;66893;44.316;0.092;2023-10-09T03:36:41;22.01;45.63
76785;SHT30;66893;44.316;0.092;2023-10-09T03:39:09;21.97;45.63
76785;SHT30;66893;44.316;0.092;2023-10-09T03:42:04;21.97;45.65
76785;SHT30;66893;44.316;0.092;2023-10-09T03:44:33;21.94;45.63
76785;SHT30;66893;44.316;0.092;2023-10-09T03:47:01;21.92;45.69
76785;SHT30;66893;44.316;0.092;2023-10-09T03:49:30;21.91;45.64
76785;SHT30;66893;44.316;0.092;2023-10-09T03:51:57;21.88;45.66
76785;SHT30;66893;44.316;0.092;2023-10-09T03:54:24;21.87;45.66
76785;SHT30;66893;44.316;0.092;2023-10-09T03:56:50;21.87;45.64
76785;SHT30;66893;44.316;0.092;2023-10-09T03:59:19;21.82;45.67
76785;SHT30;66893;44.316;0.092;2023-10-09T04:01:47;21.82;45.65
76785;SHT30;66893;44.316;0.092;2023-10-09T04:04:18;21.81;45.65
76785;SHT30;66893;44.316;0.092;2023-10-09T04:06:48;21.78;45.66
76785;SHT30;66893;44.316;0.092;2023-10-09T04:09:14;21.77;45.61
76785;SHT30;66893;44.316;0.092;2023-10-09T04:11:48;21.75;45.66
76785;SHT30;66893;44.316;0.092;2023-10-09T04:14:15;21.74;45.64
76785;SHT30;66893;44.316;0.092;2023-10-09T04:16:51;21.73;45.61
76785;SHT30;66893;44.316;0.092;2023-10-09T04:19:17;21.71;45.63
76785;SHT30;66893;44.316;0.092;2023-10-09T04:21:50;21.70;45.65
76785;SHT30;66893;44.316;0.092;2023-10-09T04:24:21;21.68;45.62
76785;SHT30;66893;44.316;0.092;2023-10-09T04:26:46;21.64;45.61
76785;SHT30;66893;44.316;0.092;2023-10-09T04:29:13;21.64;45.65
76785;SHT30;66893;44.316;0.092;2023-10-09T04:31:46;21.62;45.65
76785;SHT30;66893;44.316;0.092;2023-10-09T04:34:19;21.61;45.59
76785;SHT30;66893;44.316;0.092;2023-10-09T04:36:52;21.58;45.62
76785;SHT30;66893;44.316;0.092;2023-10-09T04:39:42;21.58;45.59
76785;SHT30;66893;44.316;0.092;2023-10-09T04:42:15;21.57;45.61
76785;SHT30;66893;44.316;0.092;2023-10-09T04:44:50;21.58;45.64
76785;SHT30;66893;44.316;0.092;2023-10-09T04:47:44;21.53;45.65
76785;SHT30;66893;44.316;0.092;2023-10-09T04:50:32;21.50;45.63
76785;SHT30;66893;44.316;0.092;2023-10-09T04:52:57;21.47;45.64
76785;SHT30;66893;44.316;0.092;2023-10-09T04:55:39;21.50;45.63
76785;SHT30;66893;44.316;0.092;2023-10-09T04:58:09;21.47;45.64
76785;SHT30;66893;44.316;0.092;2023-10-09T05:00:39;21.47;45.68
76785;SHT30;66893;44.316;0.092;2023-10-09T05:03:09;21.46;45.62
76785;SHT30;66893;44.316;0.092;2023-10-09T05:05:52;21.43;45.61
76785;SHT30;66893;44.316;0.092;2023-10-09T05:08:25;21.40;45.65
76785;SHT30;66893;44.316;0.092;2023-10-09T05:10:51;21.40;45.65
76785;SHT30;66893;44.316;0.092;2023-10-09T05:13:36;21.36;45.66
76785;SHT30;66893;44.316;0.092;2023-10-09T05:16:07;21.37;45.66
76785;SHT30;66893;44.316;0.092;2023-10-09T05:18:42;21.33;45.64
76785;SHT30;66893;44.316;0.092;2023-10-09T05:21:10;21.32;45.69
76785;SHT30;66893;44.316;0.092;2023-10-09T05:23:42;21.30;45.66
76785;SHT30;66893;44.316;0.092;2023-10-09T05:26:16;21.29;45.63
76785;SHT30;66893;44.316;0.092;2023-10-09T05:29:08;21.30;45.65
76785;SHT30;66893;44.316;0.092;2023-10-09T05:32:06;21.27;45.62
76785;SHT30;66893;44.316;0.092;2023-10-09T05:34:38;21.27;45.65
76785;SHT30;66893;44.316;0.092;2023-10-09T05:37:23;21.22;45.62
76785;SHT30;66893;44.316;0.092;2023-10-09T05:39:58;21.22;45.64
76785;SHT30;66893;44.316;0.092;2023-10-09T05:42:27;21.22;45.62
76785;SHT30;66893;44.316;0.092;2023-10-09T05:45:02;21.18;45.62
76785;SHT30;66893;44.316;0.092;2023-10-09T05:47:52;21.18;45.65
76785;SHT30;66893;44.316;0.092;2023-10-09T05:50:36;21.13;45.67
76785;SHT30;66893;44.316;0.092;2023-10-09T05:53:25;21.16;45.67
76785;SHT30;66893;44.316;0.092;2023-10-09T05:56:19;21.16;45.64
76785;SHT30;66893;44.316;0.092;2023-10-09T05:58:48;21.15;45.64
76785;SHT30;66893;44.316;0.092;2023-10-09T06:01:39;21.12;45.65
76785;SHT30;66893;44.316;0.092;2023-10-09T06:04:22;21.13;45.65
76785;SHT30;66893;44.316;0.092;2023-10-09T06:07:00;21.09;45.65
76785;SHT30;66893;44.316;0.092;2023-10-09T06:09:36;21.09;45.70
76785;SHT30;66893;44.316;0.092;2023-10-09T06:12:20;21.10;45.76
76785;SHT30;66893;44.316;0.092;2023-10-09T06:14:58;21.08;45.76
76785;SHT30;66893;44.316;0.092;2023-10-09T06:17:29;21.06;45.76
76785;SHT30;66893;44.316;0.092;2023-10-09T06:20:08;21.06;45.84
76785;SHT30;66893;44.316;0.092;2023-10-09T06:22:54;21.06;45.85
76785;SHT30;66893;44.316;0.092;2023-10-09T06:25:22;21.02;45.84
76785;SHT30;66893;44.316;0.092;2023-10-09T06:27:57;20.88;45.97
76785;SHT30;66893;44.316;0.092;2023-10-09T06:30:23;20.74;46.24
76785;SHT30;66893;44.316;0.092;2023-10-09T06:32:50;20.65;46.47
76785;SHT30;66893;44.316;0.092;2023-10-09T06:35:21;20.64;46.63
76785;SHT30;66893;44.316;0.092;2023-10-09T06:37:49;20.61;46.64
76785;SHT30;66893;44.316;0.092;2023-10-09T06:43:07;20.68;46.88
76785;SHT30;66893;44.316;0.092;2023-10-09T06:45:35;20.70;47.01
76785;SHT30;66893;44.316;0.092;2023-10-09T06:48:13;20.72;46.99
76785;SHT30;66893;44.316;0.092;2023-10-09T06:51:05;20.75;47.01
76785;SHT30;66893;44.316;0.092;2023-10-09T06:54:03;20.74;47.05
76785;SHT30;66893;44.316;0.092;2023-10-09T06:56:32;20.77;47.10
76785;SHT30;66893;44.316;0.092;2023-10-09T06:59:00;20.78;47.12
76785;SHT30;66893;44.316;0.092;2023-10-09T07:01:47;20.81;47.18
76785;SHT30;66893;44.316;0.092;2023-10-09T07:04:33;20.81;47.21
76785;SHT30;66893;44.316;0.092;2023-10-09T07:07:02;20.82;47.28
76785;SHT30;66893;44.316;0.092;2023-10-09T07:09:33;20.85;47.32
76785;SHT30;66893;44.316;0.092;2023-10-09T07:12:10;20.85;47.35
76785;SHT30;66893;44.316;0.092;2023-10-09T07:14:39;20.88;47.38
76785;SHT30;66893;44.316;0.092;2023-10-09T07:17:06;20.88;47.40
76785;SHT30;66893;44.316;0.092;2023-10-09T07:19:42;20.89;47.41
76785;SHT30;66893;44.316;0.092;2023-10-09T07:22:14;20.91;47.46
76785;SHT30;66893;44.316;0.092;2023-10-09T07:24:52;20.92;47.52
76785;SHT30;66893;44.316;0.092;2023-10-09T07:27:40;20.92;47.64
76785;SHT30;66893;44.316;0.092;2023-10-09T07:30:10;20.91;47.64
76785;SHT30;66893;44.316;0.092;2023-10-09T07:33:03;20.92;47.68
76785;SHT30;66893;44.316;0.092;2023-10-09T07:35:35;20.94;47.73
76785;SHT30;66893;44.316;0.092;2023-10-09T07:38:11;20.96;47.75
76785;SHT30;66893;44.316;0.092;2023-10-09T07:40:40;20.98;47.82
76785;SHT30;66893;44.316;0.092;2023-10-09T07:43:25;20.98;47.84
76785;SHT30;66893;44.316;0.092;2023-10-09T07:45:56;21.00;47.84
76785;SHT30;66893;44.316;0.092;2023-10-09T07:48:25;21.00;47.94
76785;SHT30;66893;44.316;0.092;2023-10-09T07:50:51;21.00;47.94
76785;SHT30;66893;44.316;0.092;2023-10-09T07:53:23;21.03;47.93
76785;SHT30;66893;44.316;0.092;2023-10-09T07:55:52;21.05;48.09
76785;SHT30;66893;44.316;0.092;2023-10-09T07:58:26;21.08;47.99
76785;SHT30;66893;44.316;0.092;2023-10-09T08:00:56;21.09;48.10
76785;SHT30;66893;44.316;0.092;2023-10-09T08:03:32;21.09;48.11
76785;SHT30;66893;44.316;0.092;2023-10-09T08:06:00;21.10;48.16
76785;SHT30;66893;44.316;0.092;2023-10-09T08:08:54;21.09;48.21
76785;SHT30;66893;44.316;0.092;2023-10-09T08:11:39;21.12;48.98
76785;SHT30;66893;44.316;0.092;2023-10-09T08:14:05;21.00;48.72
76785;SHT30;66893;44.316;0.092;2023-10-09T08:16:50;20.81;49.39
76785;SHT30;66893;44.316;0.092;2023-10-09T08:19:31;20.64;49.94
76785;SHT30;66893;44.316;0.092;2023-10-09T08:22:00;20.51;50.01
76785;SHT30;66893;44.316;0.092;2023-10-09T08:24:44;20.36;50.55
76785;SHT30;66893;44.316;0.092;2023-10-09T08:27:17;20.26;51.00
76785;SHT30;66893;44.316;0.092;2023-10-09T08:29:58;20.16;51.33
76785;SHT30;66893;44.316;0.092;2023-10-09T08:32:42;20.12;51.86
76785;SHT30;66893;44.316;0.092;2023-10-09T08:35:09;20.09;52.00
76785;SHT30;66893;44.316;0.092;2023-10-09T08:37:53;20.08;52.27
76785;SHT30;66893;44.316;0.092;2023-10-09T08:40:19;20.06;53.02
76785;SHT30;66893;44.316;0.092;2023-10-09T08:42:52;20.06;52.91
76785;SHT30;66893;44.316;0.092;2023-10-09T08:45:22;20.08;52.96
76785;SHT30;66893;44.316;0.092;2023-10-09T08:47:56;20.06;53.73
76785;SHT30;66893;44.316;0.092;2023-10-09T08:50:21;20.09;54.31
76785;SHT30;66893;44.316;0.092;2023-10-09T08:52:50;20.05;54.30
76785;SHT30;66893;44.316;0.092;2023-10-09T08:55:16;20.06;54.48
76785;SHT30;66893;44.316;0.092;2023-10-09T08:57:44;20.10;54.80
76785;SHT30;66893;44.316;0.092;2023-10-09T09:00:20;20.16;54.82
76785;SHT30;66893;44.316;0.092;2023-10-09T09:02:50;20.23;55.03
76785;SHT30;66893;44.316;0.092;2023-10-09T09:05:22;20.30;55.13
76785;SHT30;66893;44.316;0.092;2023-10-09T09:07:49;20.33;55.53
76785;SHT30;66893;44.316;0.092;2023-10-09T09:10:15;20.37;55.77
76785;SHT30;66893;44.316;0.092;2023-10-09T09:12:44;20.44;55.88
76785;SHT30;66893;44.316;0.092;2023-10-09T09:15:16;20.53;55.80
76785;SHT30;66893;44.316;0.092;2023-10-09T09:17:46;20.58;56.04
76785;SHT30;66893;44.316;0.092;2023-10-09T09:20:23;20.64;56.16
76785;SHT30;66893;44.316;0.092;2023-10-09T09:22:54;20.70;56.45
76785;SHT30;66893;44.316;0.092;2023-10-09T09:25:40;20.79;56.36
76785;SHT30;66893;44.316;0.092;2023-10-09T09:28:24;20.89;56.70
76785;SHT30;66893;44.316;0.092;2023-10-09T09:30:52;20.94;56.63
76785;SHT30;66893;44.316;0.092;2023-10-09T09:33:21;21.02;56.97
76785;SHT30;66893;44.316;0.092;2023-10-09T09:36:02;21.10;56.79
76785;SHT30;66893;44.316;0.092;2023-10-09T09:38:29;21.19;57.23
76785;SHT30;66893;44.316;0.092;2023-10-09T09:41:10;21.27;57.71
76785;SHT30;66893;44.316;0.092;2023-10-09T09:43:37;21.39;57.99
76785;SHT30;66893;44.316;0.092;2023-10-09T09:46:07;21.47;57.65
76785;SHT30;66893;44.316;0.092;2023-10-09T09:48:39;21.58;58.15
76785;SHT30;66893;44.316;0.092;2023-10-09T09:51:10;21.67;57.86
76785;SHT30;66893;44.316;0.092;2023-10-09T09:53:36;21.78;58.12
76785;SHT30;66893;44.316;0.092;2023-10-09T09:56:03;21.91;57.80
76785;SHT30;66893;44.316;0.092;2023-10-09T09:58:30;22.02;57.53
76785;SHT30;66893;44.316;0.092;2023-10-09T10:01:12;22.09;57.78
76785;SHT30;66893;44.316;0.092;2023-10-09T10:03:45;22.16;57.51
76785;SHT30;66893;44.316;0.092;2023-10-09T10:06:12;22.28;57.30
76785;SHT30;66893;44.316;0.092;2023-10-09T10:08:41;22.33;57.10
76785;SHT30;66893;44.316;0.092;2023-10-09T10:11:07;22.44;56.80
76785;SHT30;66893;44.316;0.092;2023-10-09T10:16:12;22.64;56.11
76785;SHT30;66893;44.316;0.092;2023-10-09T10:18:59;22.72;55.74
76785;SHT30;66893;44.316;0.092;2023-10-09T10:21:29;22.80;56.09
76785;SHT30;66893;44.316;0.092;2023-10-09T10:23:57;22.90;56.02
76785;SHT30;66893;44.316;0.092;2023-10-09T10:26:35;22.97;55.96
76785;SHT30;66893;44.316;0.092;2023-10-09T10:34:23;23.25;55.89
76785;SHT30;66893;44.316;0.092;2023-10-09T10:36:53;23.35;55.41
76785;SHT30;66893;44.316;0.092;2023-10-09T10:39:24;23.42;55.45
76785;SHT30;66893;44.316;0.092;2023-10-09T10:42:14;23.52;55.41
76785;SHT30;66893;44.316;0.092;2023-10-09T10:45:02;23.63;55.34
76785;SHT30;66893;44.316;0.092;2023-10-09T10:47:27;23.74;55.45
76785;SHT30;66893;44.316;0.092;2023-10-09T10:50:03;23.82;54.98
76785;SHT30;66893;44.316;0.092;2023-10-09T10:52:48;23.93;54.88
76785;SHT30;66893;44.316;0.092;2023-10-09T10:55:22;24.00;54.92
76785;SHT30;66893;44.316;0.092;2023-10-09T10:57:48;24.07;54.79
76785;SHT30;66893;44.316;0.092;2023-10-09T11:00:30;24.15;54.72
76785;SHT30;66893;44.316;0.092;2023-10-09T11:03:19;24.26;54.54
76785;SHT30;66893;44.316;0.092;2023-10-09T11:05:48;24.32;54.43
76785;SHT30;66893;44.316;0.092;2023-10-09T11:08:18;24.39;54.64
76785;SHT30;66893;44.316;0.092;2023-10-09T11:10:49;24.48;54.73
76785;SHT30;66893;44.316;0.092;2023-10-09T11:13:25;24.56;54.63
76785;SHT30;66893;44.316;0.092;2023-10-09T11:15:58;24.69;54.39
76785;SHT30;66893;44.316;0.092;2023-10-09T11:18:54;24.76;54.32
76785;SHT30;66893;44.316;0.092;2023-10-09T11:21:22;24.86;53.84
76785;SHT30;66893;44.316;0.092;2023-10-09T11:23:56;24.90;53.24
76785;SHT30;66893;44.316;0.092;2023-10-09T11:26:44;24.91;53.03
76785;SHT30;66893;44.316;0.092;2023-10-09T11:29:19;24.98;52.85
76785;SHT30;66893;44.316;0.092;2023-10-09T11:32:06;25.01;52.83
76785;SHT30;66893;44.316;0.092;2023-10-09T11:34:34;25.08;53.00
76785;SHT30;66893;44.316;0.092;2023-10-09T11:37:14;25.12;52.87
76785;SHT30;66893;44.316;0.092;2023-10-09T11:39:59;25.21;52.93
76785;SHT30;66893;44.316;0.092;2023-10-09T11:42:27;25.28;52.85
76785;SHT30;66893;44.316;0.092;2023-10-09T11:45:23;25.36;52.59
76785;SHT30;66893;44.316;0.092;2023-10-09T11:47:51;25.42;52.43
76785;SHT30;66893;44.316;0.092;2023-10-09T11:50:47;25.49;52.14
76785;SHT30;66893;44.316;0.092;2023-10-09T11:53:28;25.52;51.83
76785;SHT30;66893;44.316;0.092;2023-10-09T11:55:53;25.58;51.78
76785;SHT30;66893;44.316;0.092;2023-10-09T11:58:20;25.65;51.65
76785;SHT30;66893;44.316;0.092;2023-10-09T12:00:52;25.72;51.41
76785;SHT30;66893;44.316;0.092;2023-10-09T12:03:25;25.76;51.22
76785;SHT30;66893;44.316;0.092;2023-10-09T12:05:55;25.81;50.86
76785;SHT30;66893;44.316;0.092;2023-10-09T12:08:24;25.93;50.22
76785;SHT30;66893;44.316;0.092;2023-10-09T12:10:54;25.96;50.65
76785;SHT30;66893;44.316;0.092;2023-10-09T12:13:23;26.02;50.52
76785;SHT30;66893;44.316;0.092;2023-10-09T12:15:50;26.05;50.23
76785;SHT30;66893;44.316;0.092;2023-10-09T12:18:17;26.14;50.10
76785;SHT30;66893;44.316;0.092;2023-10-09T12:20:44;26.18;50.01
76785;SHT30;66893;44.316;0.092;2023-10-09T12:23:22;26.25;49.80
76785;SHT30;66893;44.316;0.092;2023-10-09T12:25:51;26.31;49.50
76785;SHT30;66893;44.316;0.092;2023-10-09T12:28:19;26.35;49.38
76785;SHT30;66893;44.316;0.092;2023-10-09T12:30:46;26.42;49.17
76785;SHT30;66893;44.316;0.092;2023-10-09T12:33:20;26.46;48.87
76785;SHT30;66893;44.316;0.092;2023-10-09T12:35:53;26.55;48.88
76785;SHT30;66893;44.316;0.092;2023-10-09T12:38:25;26.57;48.95
76785;SHT30;66893;44.316;0.092;2023-10-09T12:41:06;26.62;48.81
76785;SHT30;66893;44.316;0.092;2023-10-09T12:43:52;26.69;48.84
76785;SHT30;66893;44.316;0.092;2023-10-09T12:46:18;26.73;48.73
76785;SHT30;66893;44.316;0.092;2023-10-09T12:48:56;26.78;48.62
76785;SHT30;66893;44.316;0.092;2023-10-09T12:51:23;26.84;48.43
76785;SHT30;66893;44.316;0.092;2023-10-09T12:53:55;26.93;48.42
76785;SHT30;66893;44.316;0.092;2023-10-09T12:56:24;26.99;48.30
76785;SHT30;66893;44.316;0.092;2023-10-09T12:58:58;27.04;48.19
76785;SHT30;66893;44.316;0.092;2023-10-09T13:01:26;27.08;48.01
76785;SHT30;66893;44.316;0.092;2023-10-09T13:03:57;27.15;47.84
76785;SHT30;66893;44.316;0.092;2023-10-09T13:06:25;27.21;47.80
76785;SHT30;66893;44.316;0.092;2023-10-09T13:08:50;27.24;47.70
76785;SHT30;66893;44.316;0.092;2023-10-09T13:11:17;27.30;47.57
76785;SHT30;66893;44.316;0.092;2023-10-09T13:13:44;27.35;47.54
76785;SHT30;66893;44.316;0.092;2023-10-09T13:16:13;27.41;47.35
76785;SHT30;66893;44.316;0.092;2023-10-09T13:18:46;27.46;47.29
76785;SHT30;66893;44.316;0.092;2023-10-09T13:23:44;27.55;47.21
76785;SHT30;66893;44.316;0.092;2023-10-09T13:26:19;27.61;47.10
76785;SHT30;66893;44.316;0.092;2023-10-09T13:28:49;27.59;46.95
76785;SHT30;66893;44.316;0.092;2023-10-09T13:31:16;27.65;46.90
76785;SHT30;66893;44.316;0.092;2023-10-09T13:33:43;27.65;46.96
76785;SHT30;66893;44.316;0.092;2023-10-09T13:36:12;27.72;46.78
76785;SHT30;66893;44.316;0.092;2023-10-09T13:38:54;27.75;46.47
76785;SHT30;66893;44.316;0.092;2023-10-09T13:41:21;27.78;46.38
76785;SHT30;66893;44.316;0.092;2023-10-09T13:43:46;27.85;46.36
76785;SHT30;66893;44.316;0.092;2023-10-09T13:46:12;27.89;46.19
76785;SHT30;66893;44.316;0.092;2023-10-09T13:48:41;27.94;46.09
76785;SHT30;66893;44.316;0.092;2023-10-09T13:51:12;28.00;46.02
76785;SHT30;66893;44.316;0.092;2023-10-09T13:53:47;28.06;45.81
76785;SHT30;66893;44.316;0.092;2023-10-09T13:56:19;28.11;45.59
76785;SHT30;66893;44.316;0.092;2023-10-09T13:58:51;28.14;45.43
76785;SHT30;66893;44.316;0.092;2023-10-09T14:01:19;28.16;45.44
76785;SHT30;66893;44.316;0.092;2023-10-09T14:03:59;28.20;45.45
76785;SHT30;66893;44.316;0.092;2023-10-09T14:06:26;28.22;45.26
76785;SHT30;66893;44.316;0.092;2023-10-09T14:08:59;28.27;45.04
76785;SHT30;66893;44.316;0.092;2023-10-09T14:11:27;28.33;44.94
76785;SHT30;66893;44.316;0.092;2023-10-09T14:13:53;28.34;44.77
76785;SHT30;66893;44.316;0.092;2023-10-09T14:16:18;28.41;44.61
76785;SHT30;66893;44.316;0.092;2023-10-09T14:18:56;28.45;44.62
76785;SHT30;66893;44.316;0.092;2023-10-09T14:21:28;28.49;44.48
76785;SHT30;66893;44.316;0.092;2023-10-09T14:23:56;28.52;44.42
76785;SHT30;66893;44.316;0.092;2023-10-09T14:26:27;28.59;44.33
76785;SHT30;66893;44.316;0.092;2023-10-09T14:28:55;28.64;44.27
76785;SHT30;66893;44.316;0.092;2023-10-09T14:31:25;28.66;44.28
76785;SHT30;66893;44.316;0.092;2023-10-09T14:33:57;28.69;44.08
76785;SHT30;66893;44.316;0.092;2023-10-09T14:36:23;28.73;43.84
76785;SHT30;66893;44.316;0.092;2023-10-09T14:38:50;28.75;43.77
76785;SHT30;66893;44.316;0.092;2023-10-09T14:41:21;28.76;43.73
76785;SHT30;66893;44.316;0.092;2023-10-09T14:43:51;28.80;43.59
76785;SHT30;66893;44.316;0.092;2023-10-09T14:46:18;28.83;43.53
76785;SHT30;66893;44.316;0.092;2023-10-09T14:48:51;28.86;42.94
76785;SHT30;66893;44.316;0.092;2023-10-09T14:51:19;28.90;43.15
76785;SHT30;66893;44.316;0.092;2023-10-09T14:53:58;28.93;42.74
76785;SHT30;66893;44.316;0.092;2023-10-09T14:56:25;29.00;42.61
76785;SHT30;66893;44.316;0.092;2023-10-09T14:58:58;28.99;42.46
76785;SHT30;66893;44.316;0.092;2023-10-09T15:01:28;29.03;42.51
76785;SHT30;66893;44.316;0.092;2023-10-09T15:04:00;29.20;42.29
76785;SHT30;66893;44.316;0.092;2023-10-09T15:06:29;29.34;41.93
76785;SHT30;66893;44.316;0.092;2023-10-09T15:08:57;29.57;41.85
76785;SHT30;66893;44.316;0.092;2023-10-09T15:11:25;29.93;41.34
76785;SHT30;66893;44.316;0.092;2023-10-09T15:13:55;30.03;41.09
76785;SHT30;66893;44.316;0.092;2023-10-09T15:16:23;29.98;41.13
76785;SHT30;66893;44.316;0.092;2023-10-09T15:18:55;29.99;41.19
76785;SHT30;66893;44.316;0.092;2023-10-09T15:21:22;30.10;41.09
76785;SHT30;66893;44.316;0.092;2023-10-09T15:23:55;30.36;40.93
76785;SHT30;66893;44.316;0.092;2023-10-09T15:26:20;30.79;40.55
76785;SHT30;66893;44.316;0.092;2023-10-09T15:28:48;31.29;40.11
76785;SHT30;66893;44.316;0.092;2023-10-09T15:31:14;31.81;39.42
76785;SHT30;66893;44.316;0.092;2023-10-09T15:33:42;32.36;38.73
76785;SHT30;66893;44.316;0.092;2023-10-09T15:36:15;32.84;38.21
76785;SHT30;66893;44.316;0.092;2023-10-09T15:38:47;33.14;37.78
76785;SHT30;66893;44.316;0.092;2023-10-09T15:41:15;33.36;37.38
76785;SHT30;66893;44.316;0.092;2023-10-09T15:43:41;33.39;37.27
76785;SHT30;66893;44.316;0.092;2023-10-09T15:46:13;33.25;37.45
76785;SHT30;66893;44.316;0.092;2023-10-09T15:48:43;33.11;37.59
76785;SHT30;66893;44.316;0.092;2023-10-09T15:51:11;33.05;37.63
76785;SHT30;66893;44.316;0.092;2023-10-09T15:53:43;32.98;37.61
76785;SHT30;66893;44.316;0.092;2023-10-09T15:56:13;32.94;37.62
76785;SHT30;66893;44.316;0.092;2023-10-09T15:58:42;32.83;37.62
76785;SHT30;66893;44.316;0.092;2023-10-09T16:01:13;32.70;37.72
76785;SHT30;66893;44.316;0.092;2023-10-09T16:03:43;32.56;37.66
76785;SHT30;66893;44.316;0.092;2023-10-09T16:06:09;32.43;37.72
76785;SHT30;66893;44.316;0.092;2023-10-09T16:08:37;32.26;37.80
76785;SHT30;66893;44.316;0.092;2023-10-09T16:11:05;32.12;37.90
76785;SHT30;66893;44.316;0.092;2023-10-09T16:13:31;31.92;38.00
76785;SHT30;66893;44.316;0.092;2023-10-09T16:15:58;31.77;38.13
76785;SHT30;66893;44.316;0.092;2023-10-09T16:18:25;31.61;38.28